sensor_id;sensor_type;location;lat;lon;timestamp;P1;durP1;ratioP1;P2;durP2;ratioP2
77026;SDS011;65956;52.986;17.490;2023-03-13T00:01:31;13.10;;;5.20;;
77026;SDS011;65956;52.986;17.490;2023-03-13T00:04:00;10.80;;;3.40;;
77026;SDS011;65956;52.986;17.490;2023-03-13T00:06:28;8.00;;;3.60;;
77026;SDS011;65956;52.986;17.490;2023-03-13T00:08:57;9.30;;;4.00;;
77026;SDS011;65956;52.986;17.490;2023-03-13T00:11:28;10.90;;;5.30;;
77026;SDS011;65956;52.986;17.490;2023-03-13T00:13:56;10.30;;;4.30;;
77026;SDS011;65956;52.986;17.490;2023-03-13T00:16:24;8.50;;;3.60;;
77026;SDS011;65956;52.986;17.490;2023-03-13T00:18:52;12.20;;;5.10;;
77026;SDS011;65956;52.986;17.490;2023-03-13T00:21:20;10.50;;;4.80;;
77026;SDS011;65956;52.986;17.490;2023-03-13T00:23:48;10.80;;;4.70;;
77026;SDS011;65956;52.986;17.490;2023-03-13T00:26:17;9.40;;;4.00;;
77026;SDS011;65956;52.986;17.490;2023-03-13T00:28:45;10.80;;;4.40;;
77026;SDS011;65956;52.986;17.490;2023-03-13T00:31:16;9.50;;;4.90;;
77026;SDS011;65956;52.986;17.490;2023-03-13T00:33:46;11.30;;;5.30;;
77026;SDS011;65956;52.986;17.490;2023-03-13T00:36:18;12.20;;;4.60;;
77026;SDS011;65956;52.986;17.490;2023-03-13T00:38:48;10.50;;;5.00;;
77026;SDS011;65956;52.986;17.490;2023-03-13T00:41:17;14.80;;;7.00;;
77026;SDS011;65956;52.986;17.490;2023-03-13T00:43:49;15.10;;;7.10;;
77026;SDS011;65956;52.986;17.490;2023-03-13T00:46:17;11.00;;;5.20;;
77026;SDS011;65956;52.986;17.490;2023-03-13T00:48:46;9.90;;;4.70;;
77026;SDS011;65956;52.986;17.490;2023-03-13T00:51:13;14.70;;;6.30;;
77026;SDS011;65956;52.986;17.490;2023-03-13T00:53:42;12.70;;;5.40;;
77026;SDS011;65956;52.986;17.490;2023-03-13T00:56:11;16.90;;;7.90;;
77026;SDS011;65956;52.986;17.490;2023-03-13T00:58:40;17.90;;;8.70;;
77026;SDS011;65956;52.986;17.490;2023-03-13T01:01:18;14.20;;;7.70;;
77026;SDS011;65956;52.986;17.490;2023-03-13T01:03:48;12.30;;;7.20;;
77026;SDS011;65956;52.986;17.490;2023-03-13T01:06:24;10.50;;;5.30;;
77026;SDS011;65956;52.986;17.490;2023-03-13T01:08:55;16.40;;;8.40;;
77026;SDS011;65956;52.986;17.490;2023-03-13T01:11:23;13.30;;;7.30;;
77026;SDS011;65956;52.986;17.490;2023-03-13T01:13:56;14.40;;;7.20;;
77026;SDS011;65956;52.986;17.490;2023-03-13T01:16:27;19.60;;;8.50;;
77026;SDS011;65956;52.986;17.490;2023-03-13T01:18:57;15.80;;;8.20;;
77026;SDS011;65956;52.986;17.490;2023-03-13T01:21:25;15.70;;;9.30;;
77026;SDS011;65956;52.986;17.490;2023-03-13T01:23:53;15.10;;;8.60;;
77026;SDS011;65956;52.986;17.490;2023-03-13T01:26:21;14.30;;;7.20;;
77026;SDS011;65956;52.986;17.490;2023-03-13T01:28:48;17.90;;;7.90;;
77026;SDS011;65956;52.986;17.490;2023-03-13T01:33:48;14.10;;;7.40;;
77026;SDS011;65956;52.986;17.490;2023-03-13T01:36:17;15.00;;;8.80;;
77026;SDS011;65956;52.986;17.490;2023-03-13T01:38:52;14.60;;;6.90;;
77026;SDS011;65956;52.986;17.490;2023-03-13T01:41:20;18.70;;;9.90;;
77026;SDS011;65956;52.986;17.490;2023-03-13T01:43:48;15.90;;;9.00;;
77026;SDS011;65956;52.986;17.490;2023-03-13T01:46:17;17.50;;;9.40;;
77026;SDS011;65956;52.986;17.490;2023-03-13T01:49:02;20.10;;;9.90;;
77026;SDS011;65956;52.986;17.490;2023-03-13T01:51:41;18.10;;;10.40;;
77026;SDS011;65956;52.986;17.490;2023-03-13T01:54:14;18.60;;;9.80;;
77026;SDS011;65956;52.986;17.490;2023-03-13T01:59:36;25.20;;;11.90;;
77026;SDS011;65956;52.986;17.490;2023-03-13T02:02:07;29.40;;;12.70;;
77026;SDS011;65956;52.986;17.490;2023-03-13T02:04:35;25.00;;;12.70;;
77026;SDS011;65956;52.986;17.490;2023-03-13T02:07:06;23.40;;;10.40;;
77026;SDS011;65956;52.986;17.490;2023-03-13T02:09:38;26.10;;;13.40;;
77026;SDS011;65956;52.986;17.490;2023-03-13T02:12:13;22.40;;;11.90;;
77026;SDS011;65956;52.986;17.490;2023-03-13T02:14:43;33.20;;;14.80;;
77026;SDS011;65956;52.986;17.490;2023-03-13T02:17:12;36.10;;;17.50;;
77026;SDS011;65956;52.986;17.490;2023-03-13T02:19:43;65.10;;;26.40;;
77026;SDS011;65956;52.986;17.490;2023-03-13T02:22:21;48.30;;;22.10;;
77026;SDS011;65956;52.986;17.490;2023-03-13T02:27:43;25.20;;;13.80;;
77026;SDS011;65956;52.986;17.490;2023-03-13T02:30:12;22.50;;;15.60;;
77026;SDS011;65956;52.986;17.490;2023-03-13T02:32:41;28.20;;;18.10;;
77026;SDS011;65956;52.986;17.490;2023-03-13T02:35:10;21.10;;;10.80;;
77026;SDS011;65956;52.986;17.490;2023-03-13T02:37:41;16.10;;;9.50;;
77026;SDS011;65956;52.986;17.490;2023-03-13T02:40:17;21.40;;;10.90;;
77026;SDS011;65956;52.986;17.490;2023-03-13T02:42:49;15.40;;;9.10;;
77026;SDS011;65956;52.986;17.490;2023-03-13T02:45:17;17.20;;;9.20;;
77026;SDS011;65956;52.986;17.490;2023-03-13T02:47:44;18.50;;;10.20;;
77026;SDS011;65956;52.986;17.490;2023-03-13T02:50:12;21.00;;;10.60;;
77026;SDS011;65956;52.986;17.490;2023-03-13T02:52:42;19.30;;;10.70;;
77026;SDS011;65956;52.986;17.490;2023-03-13T02:55:35;19.90;;;11.80;;
77026;SDS011;65956;52.986;17.490;2023-03-13T02:58:07;18.10;;;9.80;;
77026;SDS011;65956;52.986;17.490;2023-03-13T03:00:35;18.90;;;10.50;;
77026;SDS011;65956;52.986;17.490;2023-03-13T03:03:02;19.70;;;9.90;;
77026;SDS011;65956;52.986;17.490;2023-03-13T03:05:29;18.10;;;10.10;;
77026;SDS011;65956;52.986;17.490;2023-03-13T03:07:56;16.20;;;8.60;;
77026;SDS011;65956;52.986;17.490;2023-03-13T03:10:23;19.60;;;11.90;;
77026;SDS011;65956;52.986;17.490;2023-03-13T03:12:51;19.30;;;10.20;;
77026;SDS011;65956;52.986;17.490;2023-03-13T03:15:17;19.80;;;10.70;;
77026;SDS011;65956;52.986;17.490;2023-03-13T03:17:45;21.00;;;11.20;;
77026;SDS011;65956;52.986;17.490;2023-03-13T03:20:11;23.80;;;13.50;;
77026;SDS011;65956;52.986;17.490;2023-03-13T03:22:41;24.00;;;12.60;;
77026;SDS011;65956;52.986;17.490;2023-03-13T03:25:07;23.60;;;11.30;;
77026;SDS011;65956;52.986;17.490;2023-03-13T03:27:35;22.00;;;12.10;;
77026;SDS011;65956;52.986;17.490;2023-03-13T03:30:03;21.80;;;11.60;;
77026;SDS011;65956;52.986;17.490;2023-03-13T03:32:32;21.30;;;11.80;;
77026;SDS011;65956;52.986;17.490;2023-03-13T03:34:58;25.00;;;12.10;;
77026;SDS011;65956;52.986;17.490;2023-03-13T03:37:25;24.20;;;12.80;;
77026;SDS011;65956;52.986;17.490;2023-03-13T03:39:52;25.90;;;12.90;;
77026;SDS011;65956;52.986;17.490;2023-03-13T03:42:19;19.70;;;8.60;;
77026;SDS011;65956;52.986;17.490;2023-03-13T03:44:45;27.90;;;13.30;;
77026;SDS011;65956;52.986;17.490;2023-03-13T03:47:12;25.80;;;12.80;;
77026;SDS011;65956;52.986;17.490;2023-03-13T03:49:41;26.20;;;13.50;;
77026;SDS011;65956;52.986;17.490;2023-03-13T03:52:09;28.40;;;14.00;;
77026;SDS011;65956;52.986;17.490;2023-03-13T03:54:38;29.40;;;14.20;;
77026;SDS011;65956;52.986;17.490;2023-03-13T03:57:05;27.40;;;14.60;;
77026;SDS011;65956;52.986;17.490;2023-03-13T03:59:32;27.20;;;14.00;;
77026;SDS011;65956;52.986;17.490;2023-03-13T04:02:09;28.30;;;14.60;;
77026;SDS011;65956;52.986;17.490;2023-03-13T04:04:36;29.90;;;14.40;;
77026;SDS011;65956;52.986;17.490;2023-03-13T04:07:23;24.00;;;13.10;;
77026;SDS011;65956;52.986;17.490;2023-03-13T04:09:51;24.80;;;13.20;;
77026;SDS011;65956;52.986;17.490;2023-03-13T04:12:24;22.30;;;12.20;;
77026;SDS011;65956;52.986;17.490;2023-03-13T04:14:54;21.90;;;12.10;;
77026;SDS011;65956;52.986;17.490;2023-03-13T04:17:21;22.60;;;11.80;;
77026;SDS011;65956;52.986;17.490;2023-03-13T04:19:48;22.20;;;12.60;;
77026;SDS011;65956;52.986;17.490;2023-03-13T04:22:15;21.10;;;12.50;;
77026;SDS011;65956;52.986;17.490;2023-03-13T04:24:47;23.10;;;12.30;;
77026;SDS011;65956;52.986;17.490;2023-03-13T04:27:14;21.00;;;11.60;;
77026;SDS011;65956;52.986;17.490;2023-03-13T04:29:41;24.00;;;12.30;;
77026;SDS011;65956;52.986;17.490;2023-03-13T04:32:27;19.60;;;11.20;;
77026;SDS011;65956;52.986;17.490;2023-03-13T04:35:20;23.20;;;12.40;;
77026;SDS011;65956;52.986;17.490;2023-03-13T04:38:20;24.30;;;13.90;;
77026;SDS011;65956;52.986;17.490;2023-03-13T04:40:57;25.20;;;13.70;;
77026;SDS011;65956;52.986;17.490;2023-03-13T04:43:49;24.50;;;13.20;;
77026;SDS011;65956;52.986;17.490;2023-03-13T04:46:35;25.40;;;13.50;;
77026;SDS011;65956;52.986;17.490;2023-03-13T04:49:10;24.40;;;12.80;;
77026;SDS011;65956;52.986;17.490;2023-03-13T04:51:50;24.90;;;13.20;;
77026;SDS011;65956;52.986;17.490;2023-03-13T04:54:29;24.80;;;13.80;;
77026;SDS011;65956;52.986;17.490;2023-03-13T04:57:15;22.00;;;12.70;;
77026;SDS011;65956;52.986;17.490;2023-03-13T04:59:54;21.10;;;13.70;;
77026;SDS011;65956;52.986;17.490;2023-03-13T05:02:30;25.40;;;13.70;;
77026;SDS011;65956;52.986;17.490;2023-03-13T05:05:17;24.40;;;13.50;;
77026;SDS011;65956;52.986;17.490;2023-03-13T05:08:23;26.60;;;14.10;;
77026;SDS011;65956;52.986;17.490;2023-03-13T05:11:03;24.70;;;13.50;;
77026;SDS011;65956;52.986;17.490;2023-03-13T05:13:45;24.90;;;13.90;;
77026;SDS011;65956;52.986;17.490;2023-03-13T05:16:36;31.00;;;15.50;;
77026;SDS011;65956;52.986;17.490;2023-03-13T05:19:13;26.10;;;13.80;;
77026;SDS011;65956;52.986;17.490;2023-03-13T05:22:15;24.40;;;12.90;;
77026;SDS011;65956;52.986;17.490;2023-03-13T05:25:05;24.70;;;13.00;;
77026;SDS011;65956;52.986;17.490;2023-03-13T05:27:50;23.90;;;12.40;;
77026;SDS011;65956;52.986;17.490;2023-03-13T05:30:30;24.40;;;13.40;;
77026;SDS011;65956;52.986;17.490;2023-03-13T05:33:11;27.80;;;15.30;;
77026;SDS011;65956;52.986;17.490;2023-03-13T05:35:59;26.30;;;14.40;;
77026;SDS011;65956;52.986;17.490;2023-03-13T05:38:39;27.00;;;14.00;;
77026;SDS011;65956;52.986;17.490;2023-03-13T05:44:17;26.80;;;13.70;;
77026;SDS011;65956;52.986;17.490;2023-03-13T05:46:56;26.00;;;14.00;;
77026;SDS011;65956;52.986;17.490;2023-03-13T05:49:42;22.40;;;13.40;;
77026;SDS011;65956;52.986;17.490;2023-03-13T05:52:34;20.80;;;12.20;;
77026;SDS011;65956;52.986;17.490;2023-03-13T05:55:09;24.50;;;13.30;;
77026;SDS011;65956;52.986;17.490;2023-03-13T05:57:47;21.10;;;12.60;;
77026;SDS011;65956;52.986;17.490;2023-03-13T06:00:40;24.80;;;14.00;;
77026;SDS011;65956;52.986;17.490;2023-03-13T06:03:27;20.70;;;12.90;;
77026;SDS011;65956;52.986;17.490;2023-03-13T06:05:58;23.30;;;11.80;;
77026;SDS011;65956;52.986;17.490;2023-03-13T06:08:45;18.90;;;11.70;;
77026;SDS011;65956;52.986;17.490;2023-03-13T06:11:12;22.40;;;12.60;;
77026;SDS011;65956;52.986;17.490;2023-03-13T06:13:39;19.40;;;12.00;;
77026;SDS011;65956;52.986;17.490;2023-03-13T06:16:19;22.50;;;12.10;;
77026;SDS011;65956;52.986;17.490;2023-03-13T06:18:47;22.40;;;11.70;;
77026;SDS011;65956;52.986;17.490;2023-03-13T06:21:14;20.30;;;10.60;;
77026;SDS011;65956;52.986;17.490;2023-03-13T06:23:41;21.90;;;11.50;;
77026;SDS011;65956;52.986;17.490;2023-03-13T06:26:08;17.80;;;10.40;;
77026;SDS011;65956;52.986;17.490;2023-03-13T06:28:38;16.80;;;9.90;;
77026;SDS011;65956;52.986;17.490;2023-03-13T06:31:06;19.90;;;11.40;;
77026;SDS011;65956;52.986;17.490;2023-03-13T06:33:33;14.50;;;10.10;;
77026;SDS011;65956;52.986;17.490;2023-03-13T06:36:00;16.50;;;9.70;;
77026;SDS011;65956;52.986;17.490;2023-03-13T06:38:28;15.80;;;9.50;;
77026;SDS011;65956;52.986;17.490;2023-03-13T06:40:55;17.00;;;9.20;;
77026;SDS011;65956;52.986;17.490;2023-03-13T06:43:22;12.20;;;6.70;;
77026;SDS011;65956;52.986;17.490;2023-03-13T06:45:49;14.80;;;8.80;;
77026;SDS011;65956;52.986;17.490;2023-03-13T06:48:16;19.40;;;10.50;;
77026;SDS011;65956;52.986;17.490;2023-03-13T06:50:43;15.10;;;8.80;;
77026;SDS011;65956;52.986;17.490;2023-03-13T06:53:17;19.20;;;9.80;;
77026;SDS011;65956;52.986;17.490;2023-03-13T06:55:45;14.70;;;8.40;;
77026;SDS011;65956;52.986;17.490;2023-03-13T06:58:14;19.40;;;8.90;;
77026;SDS011;65956;52.986;17.490;2023-03-13T07:00:42;14.60;;;8.50;;
77026;SDS011;65956;52.986;17.490;2023-03-13T07:03:10;14.70;;;8.90;;
77026;SDS011;65956;52.986;17.490;2023-03-13T07:05:36;17.00;;;7.40;;
77026;SDS011;65956;52.986;17.490;2023-03-13T07:08:03;11.90;;;6.90;;
77026;SDS011;65956;52.986;17.490;2023-03-13T07:10:30;16.50;;;7.50;;
77026;SDS011;65956;52.986;17.490;2023-03-13T07:12:57;14.40;;;9.10;;
77026;SDS011;65956;52.986;17.490;2023-03-13T07:15:24;11.30;;;6.80;;
77026;SDS011;65956;52.986;17.490;2023-03-13T07:17:50;13.80;;;7.00;;
77026;SDS011;65956;52.986;17.490;2023-03-13T07:20:17;13.80;;;6.00;;
77026;SDS011;65956;52.986;17.490;2023-03-13T07:22:49;8.40;;;4.80;;
77026;SDS011;65956;52.986;17.490;2023-03-13T07:25:16;12.60;;;6.50;;
77026;SDS011;65956;52.986;17.490;2023-03-13T07:27:43;11.20;;;4.90;;
77026;SDS011;65956;52.986;17.490;2023-03-13T07:30:10;12.20;;;6.00;;
77026;SDS011;65956;52.986;17.490;2023-03-13T07:32:37;12.90;;;6.30;;
77026;SDS011;65956;52.986;17.490;2023-03-13T07:35:04;14.50;;;7.30;;
77026;SDS011;65956;52.986;17.490;2023-03-13T07:37:31;18.60;;;9.60;;
77026;SDS011;65956;52.986;17.490;2023-03-13T07:39:58;12.30;;;7.40;;
77026;SDS011;65956;52.986;17.490;2023-03-13T07:42:24;11.70;;;6.00;;
77026;SDS011;65956;52.986;17.490;2023-03-13T07:44:52;13.70;;;7.30;;
77026;SDS011;65956;52.986;17.490;2023-03-13T07:47:19;14.10;;;7.40;;
77026;SDS011;65956;52.986;17.490;2023-03-13T07:49:45;13.00;;;6.90;;
77026;SDS011;65956;52.986;17.490;2023-03-13T07:52:12;13.00;;;6.70;;
77026;SDS011;65956;52.986;17.490;2023-03-13T07:54:39;9.30;;;5.50;;
77026;SDS011;65956;52.986;17.490;2023-03-13T07:57:06;9.20;;;5.20;;
77026;SDS011;65956;52.986;17.490;2023-03-13T07:59:32;11.60;;;6.70;;
77026;SDS011;65956;52.986;17.490;2023-03-13T08:01:59;12.10;;;5.40;;
77026;SDS011;65956;52.986;17.490;2023-03-13T08:04:26;11.70;;;5.40;;
77026;SDS011;65956;52.986;17.490;2023-03-13T08:06:53;14.80;;;10.10;;
77026;SDS011;65956;52.986;17.490;2023-03-13T08:09:20;11.60;;;5.50;;
77026;SDS011;65956;52.986;17.490;2023-03-13T08:11:47;11.30;;;5.40;;
77026;SDS011;65956;52.986;17.490;2023-03-13T08:14:14;14.50;;;5.60;;
77026;SDS011;65956;52.986;17.490;2023-03-13T08:16:41;10.90;;;5.70;;
77026;SDS011;65956;52.986;17.490;2023-03-13T08:19:08;14.60;;;6.20;;
77026;SDS011;65956;52.986;17.490;2023-03-13T08:21:36;14.10;;;6.90;;
77026;SDS011;65956;52.986;17.490;2023-03-13T08:24:04;80.40;;;59.50;;
77026;SDS011;65956;52.986;17.490;2023-03-13T08:26:34;34.80;;;30.50;;
77026;SDS011;65956;52.986;17.490;2023-03-13T08:29:05;79.60;;;64.20;;
77026;SDS011;65956;52.986;17.490;2023-03-13T08:31:35;56.00;;;50.50;;
77026;SDS011;65956;52.986;17.490;2023-03-13T08:34:13;18.50;;;14.10;;
77026;SDS011;65956;52.986;17.490;2023-03-13T08:36:42;15.30;;;7.40;;
77026;SDS011;65956;52.986;17.490;2023-03-13T08:39:10;13.90;;;6.70;;
77026;SDS011;65956;52.986;17.490;2023-03-13T08:41:46;11.90;;;5.10;;
77026;SDS011;65956;52.986;17.490;2023-03-13T08:44:14;9.70;;;4.40;;
77026;SDS011;65956;52.986;17.490;2023-03-13T08:46:43;16.30;;;6.20;;
77026;SDS011;65956;52.986;17.490;2023-03-13T08:49:10;11.80;;;5.40;;
77026;SDS011;65956;52.986;17.490;2023-03-13T08:51:38;12.70;;;5.80;;
77026;SDS011;65956;52.986;17.490;2023-03-13T08:54:06;9.50;;;5.80;;
77026;SDS011;65956;52.986;17.490;2023-03-13T08:56:33;13.40;;;5.40;;
77026;SDS011;65956;52.986;17.490;2023-03-13T08:59:00;13.80;;;6.10;;
77026;SDS011;65956;52.986;17.490;2023-03-13T09:01:29;21.30;;;10.10;;
77026;SDS011;65956;52.986;17.490;2023-03-13T09:03:58;15.30;;;5.20;;
77026;SDS011;65956;52.986;17.490;2023-03-13T09:06:25;12.90;;;5.80;;
77026;SDS011;65956;52.986;17.490;2023-03-13T09:08:54;12.40;;;5.60;;
77026;SDS011;65956;52.986;17.490;2023-03-13T09:11:22;14.40;;;5.30;;
77026;SDS011;65956;52.986;17.490;2023-03-13T09:13:49;9.70;;;5.10;;
77026;SDS011;65956;52.986;17.490;2023-03-13T09:16:18;15.70;;;5.90;;
77026;SDS011;65956;52.986;17.490;2023-03-13T09:18:47;17.80;;;6.20;;
77026;SDS011;65956;52.986;17.490;2023-03-13T09:21:16;13.60;;;6.30;;
77026;SDS011;65956;52.986;17.490;2023-03-13T09:23:44;16.90;;;6.20;;
77026;SDS011;65956;52.986;17.490;2023-03-13T09:26:13;16.80;;;6.20;;
77026;SDS011;65956;52.986;17.490;2023-03-13T09:28:40;14.00;;;5.90;;
77026;SDS011;65956;52.986;17.490;2023-03-13T09:31:11;13.90;;;5.20;;
77026;SDS011;65956;52.986;17.490;2023-03-13T09:33:38;14.20;;;6.00;;
77026;SDS011;65956;52.986;17.490;2023-03-13T09:36:06;12.90;;;5.70;;
77026;SDS011;65956;52.986;17.490;2023-03-13T09:38:34;13.80;;;6.10;;
77026;SDS011;65956;52.986;17.490;2023-03-13T09:41:03;16.40;;;5.80;;
77026;SDS011;65956;52.986;17.490;2023-03-13T09:49:13;13.70;;;5.10;;
77026;SDS011;65956;52.986;17.490;2023-03-13T09:51:48;13.00;;;5.70;;
77026;SDS011;65956;52.986;17.490;2023-03-13T09:54:25;12.80;;;5.40;;
77026;SDS011;65956;52.986;17.490;2023-03-13T09:57:04;13.10;;;5.50;;
77026;SDS011;65956;52.986;17.490;2023-03-13T10:02:15;15.20;;;5.10;;
77026;SDS011;65956;52.986;17.490;2023-03-13T10:04:49;13.60;;;5.80;;
77026;SDS011;65956;52.986;17.490;2023-03-13T10:07:21;14.20;;;6.30;;
77026;SDS011;65956;52.986;17.490;2023-03-13T10:09:48;14.20;;;5.30;;
77026;SDS011;65956;52.986;17.490;2023-03-13T10:17:48;11.40;;;5.40;;
77026;SDS011;65956;52.986;17.490;2023-03-13T10:20:25;14.40;;;4.90;;
77026;SDS011;65956;52.986;17.490;2023-03-13T10:22:58;13.60;;;4.80;;
77026;SDS011;65956;52.986;17.490;2023-03-13T10:27:57;10.70;;;4.80;;
77026;SDS011;65956;52.986;17.490;2023-03-13T10:30:25;10.10;;;5.00;;
77026;SDS011;65956;52.986;17.490;2023-03-13T10:33:35;9.60;;;5.10;;
77026;SDS011;65956;52.986;17.490;2023-03-13T10:38:28;14.40;;;5.40;;
77026;SDS011;65956;52.986;17.490;2023-03-13T10:41:00;13.90;;;5.80;;
77026;SDS011;65956;52.986;17.490;2023-03-13T10:43:33;16.70;;;6.20;;
77026;SDS011;65956;52.986;17.490;2023-03-13T10:46:00;16.70;;;6.00;;
77026;SDS011;65956;52.986;17.490;2023-03-13T10:48:29;18.50;;;6.60;;
77026;SDS011;65956;52.986;17.490;2023-03-13T10:51:02;14.00;;;5.00;;
77026;SDS011;65956;52.986;17.490;2023-03-13T10:56:12;16.40;;;6.10;;
77026;SDS011;65956;52.986;17.490;2023-03-13T10:58:41;11.40;;;5.10;;
77026;SDS011;65956;52.986;17.490;2023-03-13T11:01:24;13.20;;;6.10;;
77026;SDS011;65956;52.986;17.490;2023-03-13T11:04:00;16.30;;;6.30;;
77026;SDS011;65956;52.986;17.490;2023-03-13T11:07:09;13.90;;;5.90;;
77026;SDS011;65956;52.986;17.490;2023-03-13T11:09:49;16.50;;;6.60;;
77026;SDS011;65956;52.986;17.490;2023-03-13T11:12:23;21.00;;;10.90;;
77026;SDS011;65956;52.986;17.490;2023-03-13T11:14:55;20.80;;;11.20;;
77026;SDS011;65956;52.986;17.490;2023-03-13T11:17:31;54.20;;;32.30;;
77026;SDS011;65956;52.986;17.490;2023-03-13T11:20:11;60.40;;;31.00;;
77026;SDS011;65956;52.986;17.490;2023-03-13T11:25:22;183.60;;;68.00;;
77026;SDS011;65956;52.986;17.490;2023-03-13T11:33:21;409.00;;;126.00;;
77026;SDS011;65956;52.986;17.490;2023-03-13T11:36:16;167.30;;;51.00;;
77026;SDS011;65956;52.986;17.490;2023-03-13T11:42:02;98.00;;;39.10;;
77026;SDS011;65956;52.986;17.490;2023-03-13T11:44:58;138.00;;;48.90;;
77026;SDS011;65956;52.986;17.490;2023-03-13T11:50:13;154.20;;;57.50;;
77026;SDS011;65956;52.986;17.490;2023-03-13T12:00:58;15.80;;;7.80;;
77026;SDS011;65956;52.986;17.490;2023-03-13T12:09:10;15.10;;;6.90;;
77026;SDS011;65956;52.986;17.490;2023-03-13T12:12:02;51.60;;;22.80;;
77026;SDS011;65956;52.986;17.490;2023-03-13T12:14:31;58.30;;;23.60;;
77026;SDS011;65956;52.986;17.490;2023-03-13T12:17:00;37.50;;;15.40;;
77026;SDS011;65956;52.986;17.490;2023-03-13T12:19:34;36.70;;;19.00;;
77026;SDS011;65956;52.986;17.490;2023-03-13T12:22:16;18.80;;;9.50;;
77026;SDS011;65956;52.986;17.490;2023-03-13T12:24:50;19.30;;;9.80;;
77026;SDS011;65956;52.986;17.490;2023-03-13T12:30:05;22.00;;;11.60;;
77026;SDS011;65956;52.986;17.490;2023-03-13T12:35:46;12.50;;;5.90;;
77026;SDS011;65956;52.986;17.490;2023-03-13T12:43:48;59.30;;;18.40;;
77026;SDS011;65956;52.986;17.490;2023-03-13T12:46:53;42.20;;;15.10;;
77026;SDS011;65956;52.986;17.490;2023-03-13T12:59:56;10.90;;;6.20;;
77026;SDS011;65956;52.986;17.490;2023-03-13T13:02:26;13.10;;;6.40;;
77026;SDS011;65956;52.986;17.490;2023-03-13T13:04:56;31.40;;;14.20;;
77026;SDS011;65956;52.986;17.490;2023-03-13T13:07:27;8.40;;;5.50;;
77026;SDS011;65956;52.986;17.490;2023-03-13T13:10:15;22.20;;;14.90;;
77026;SDS011;65956;52.986;17.490;2023-03-13T13:13:15;25.70;;;19.80;;
77026;SDS011;65956;52.986;17.490;2023-03-13T13:15:46;60.00;;;23.50;;
77026;SDS011;65956;52.986;17.490;2023-03-13T13:18:25;42.10;;;17.10;;
77026;SDS011;65956;52.986;17.490;2023-03-13T13:21:37;16.50;;;7.30;;
77026;SDS011;65956;52.986;17.490;2023-03-13T13:23:46;80.20;;;27.90;;
77026;SDS011;65956;52.986;17.490;2023-03-13T13:29:50;70.30;;;29.50;;
77026;SDS011;65956;52.986;17.490;2023-03-13T13:36:54;8.00;;;3.80;;
77026;SDS011;65956;52.986;17.490;2023-03-13T13:39:43;8.00;;;4.20;;
77026;SDS011;65956;52.986;17.490;2023-03-13T13:47:43;7.60;;;5.50;;
77026;SDS011;65956;52.986;17.490;2023-03-13T13:50:24;10.20;;;6.40;;
77026;SDS011;65956;52.986;17.490;2023-03-13T13:53:22;7.10;;;5.00;;
77026;SDS011;65956;52.986;17.490;2023-03-13T13:55:54;7.30;;;4.40;;
77026;SDS011;65956;52.986;17.490;2023-03-13T13:58:24;10.00;;;5.20;;
77026;SDS011;65956;52.986;17.490;2023-03-13T14:00:59;7.80;;;5.00;;
77026;SDS011;65956;52.986;17.490;2023-03-13T14:03:38;9.50;;;4.80;;
77026;SDS011;65956;52.986;17.490;2023-03-13T14:06:16;8.50;;;4.30;;
77026;SDS011;65956;52.986;17.490;2023-03-13T14:08:47;23.10;;;11.40;;
77026;SDS011;65956;52.986;17.490;2023-03-13T14:11:25;8.20;;;4.60;;
77026;SDS011;65956;52.986;17.490;2023-03-13T14:22:05;9.60;;;8.50;;
77026;SDS011;65956;52.986;17.490;2023-03-13T14:24:33;9.30;;;6.50;;
77026;SDS011;65956;52.986;17.490;2023-03-13T14:27:01;7.80;;;5.00;;
77026;SDS011;65956;52.986;17.490;2023-03-13T14:29:40;7.20;;;3.90;;
77026;SDS011;65956;52.986;17.490;2023-03-13T14:32:06;7.60;;;4.40;;
77026;SDS011;65956;52.986;17.490;2023-03-13T14:34:33;7.50;;;4.20;;
77026;SDS011;65956;52.986;17.490;2023-03-13T14:37:00;10.70;;;4.70;;
77026;SDS011;65956;52.986;17.490;2023-03-13T14:39:37;10.30;;;5.40;;
77026;SDS011;65956;52.986;17.490;2023-03-13T14:42:14;29.50;;;13.90;;
77026;SDS011;65956;52.986;17.490;2023-03-13T14:44:43;8.90;;;4.80;;
77026;SDS011;65956;52.986;17.490;2023-03-13T14:49:43;20.60;;;12.70;;
77026;SDS011;65956;52.986;17.490;2023-03-13T14:54:57;13.60;;;8.10;;
77026;SDS011;65956;52.986;17.490;2023-03-13T14:57:32;11.70;;;6.50;;
77026;SDS011;65956;52.986;17.490;2023-03-13T15:08:36;7.60;;;4.00;;
77026;SDS011;65956;52.986;17.490;2023-03-13T15:11:25;8.00;;;4.70;;
77026;SDS011;65956;52.986;17.490;2023-03-13T15:14:00;7.80;;;4.00;;
77026;SDS011;65956;52.986;17.490;2023-03-13T15:16:27;9.10;;;3.80;;
77026;SDS011;65956;52.986;17.490;2023-03-13T15:18:54;8.50;;;4.50;;
77026;SDS011;65956;52.986;17.490;2023-03-13T15:21:28;9.60;;;5.10;;
77026;SDS011;65956;52.986;17.490;2023-03-13T15:24:00;8.60;;;4.30;;
77026;SDS011;65956;52.986;17.490;2023-03-13T15:26:36;12.50;;;6.30;;
77026;SDS011;65956;52.986;17.490;2023-03-13T15:29:03;11.40;;;6.20;;
77026;SDS011;65956;52.986;17.490;2023-03-13T15:31:29;11.80;;;5.50;;
77026;SDS011;65956;52.986;17.490;2023-03-13T15:33:58;12.60;;;5.80;;
77026;SDS011;65956;52.986;17.490;2023-03-13T15:36:26;14.70;;;5.80;;
77026;SDS011;65956;52.986;17.490;2023-03-13T15:38:57;9.60;;;5.00;;
77026;SDS011;65956;52.986;17.490;2023-03-13T15:41:24;12.00;;;5.50;;
77026;SDS011;65956;52.986;17.490;2023-03-13T15:43:50;11.70;;;7.00;;
77026;SDS011;65956;52.986;17.490;2023-03-13T15:46:18;12.20;;;6.10;;
77026;SDS011;65956;52.986;17.490;2023-03-13T15:48:46;13.50;;;7.50;;
77026;SDS011;65956;52.986;17.490;2023-03-13T15:51:14;13.20;;;8.40;;
77026;SDS011;65956;52.986;17.490;2023-03-13T15:53:41;13.10;;;6.60;;
77026;SDS011;65956;52.986;17.490;2023-03-13T15:56:11;10.40;;;6.10;;
77026;SDS011;65956;52.986;17.490;2023-03-13T15:58:44;12.10;;;6.40;;
77026;SDS011;65956;52.986;17.490;2023-03-13T16:01:13;13.10;;;6.60;;
77026;SDS011;65956;52.986;17.490;2023-03-13T16:03:41;11.30;;;5.90;;
77026;SDS011;65956;52.986;17.490;2023-03-13T16:06:15;8.30;;;5.00;;
77026;SDS011;65956;52.986;17.490;2023-03-13T16:09:00;10.60;;;5.20;;
77026;SDS011;65956;52.986;17.490;2023-03-13T16:11:30;11.80;;;6.90;;
77026;SDS011;65956;52.986;17.490;2023-03-13T16:13:57;9.90;;;5.40;;
77026;SDS011;65956;52.986;17.490;2023-03-13T16:16:28;11.00;;;5.90;;
77026;SDS011;65956;52.986;17.490;2023-03-13T16:18:57;10.70;;;5.20;;
77026;SDS011;65956;52.986;17.490;2023-03-13T16:21:25;12.30;;;6.40;;
77026;SDS011;65956;52.986;17.490;2023-03-13T16:23:54;10.30;;;5.20;;
77026;SDS011;65956;52.986;17.490;2023-03-13T16:26:44;10.00;;;5.00;;
77026;SDS011;65956;52.986;17.490;2023-03-13T16:29:11;10.00;;;5.20;;
77026;SDS011;65956;52.986;17.490;2023-03-13T16:31:42;11.60;;;5.40;;
77026;SDS011;65956;52.986;17.490;2023-03-13T16:34:11;7.40;;;4.40;;
77026;SDS011;65956;52.986;17.490;2023-03-13T16:36:38;9.50;;;5.20;;
77026;SDS011;65956;52.986;17.490;2023-03-13T16:39:07;14.20;;;5.60;;
77026;SDS011;65956;52.986;17.490;2023-03-13T16:41:41;10.90;;;6.50;;
77026;SDS011;65956;52.986;17.490;2023-03-13T16:44:08;11.40;;;5.30;;
77026;SDS011;65956;52.986;17.490;2023-03-13T16:46:39;13.00;;;7.40;;